createdAt,value
2019-05-10T00:00:30.053Z,75.02
2019-05-10T00:03:19.729Z,75.00
2019-05-10T00:06:09.155Z,74.40
2019-05-10T00:08:45.786Z,74.67
2019-05-10T00:11:41.374Z,74.56
2019-05-10T00:14:39.113Z,74.26
2019-05-10T00:17:20.823Z,74.68
2019-05-10T00:19:52.963Z,74.85
2019-05-10T00:22:24.844Z,75.54
2019-05-10T00:25:03.988Z,75.86
2019-05-10T00:27:30.417Z,75.56
2019-05-10T00:30:02.325Z,74.96
2019-05-10T00:32:35.428Z,74.49
2019-05-10T00:35:07.518Z,75.18
2019-05-10T00:37:39.393Z,75.72
2019-05-10T00:40:11.224Z,75.92
2019-05-10T00:42:43.067Z,75.66
2019-05-10T00:45:16.044Z,74.84
2019-05-10T00:47:47.936Z,74.48
2019-05-10T00:50:19.856Z,75.20
2019-05-10T00:52:52.810Z,75.46
2019-05-10T00:55:24.672Z,75.52
2019-05-10T00:57:56.529Z,75.89
2019-05-10T01:00:28.494Z,76.40
2019-05-10T01:03:00.276Z,76.13
2019-05-10T01:05:32.156Z,75.87
2019-05-10T01:08:03.948Z,76.00
2019-05-10T01:10:35.812Z,76.29
2019-05-10T01:13:07.620Z,76.61
2019-05-10T01:15:40.825Z,76.56
2019-05-10T01:18:12.712Z,76.70
2019-05-10T01:20:44.573Z,76.42
2019-05-10T01:23:16.387Z,75.90
2019-05-10T01:25:49.264Z,76.26
2019-05-10T01:28:21.045Z,76.72
2019-05-10T01:30:54.455Z,77.47
2019-05-10T01:33:26.339Z,77.07
2019-05-10T01:35:59.546Z,77.07
2019-05-10T01:38:31.361Z,76.92
2019-05-10T01:41:03.226Z,77.05
2019-05-10T01:43:35.221Z,76.54
2019-05-10T01:46:08.411Z,76.90
2019-05-10T01:48:41.556Z,75.79
2019-05-10T01:51:13.408Z,76.49
2019-05-10T01:53:45.271Z,75.78
2019-05-10T01:56:17.079Z,76.03
2019-05-10T01:58:49.195Z,75.23
2019-05-10T02:01:21.069Z,74.89
2019-05-10T02:03:52.941Z,74.03
2019-05-10T02:06:24.827Z,74.07
2019-05-10T02:08:56.677Z,74.63
2019-05-10T02:11:28.647Z,75.09
2019-05-10T02:14:00.547Z,74.97
2019-05-10T02:16:32.419Z,75.12
2019-05-10T02:19:04.268Z,75.26
2019-05-10T02:21:36.141Z,74.80
2019-05-10T02:24:08.028Z,75.02
2019-05-10T02:26:39.809Z,75.77
2019-05-10T02:29:12.678Z,76.50
2019-05-10T02:31:44.565Z,76.72
2019-05-10T02:34:18.536Z,77.40
2019-05-10T02:36:50.406Z,77.19
2019-05-10T02:39:22.296Z,77.69
2019-05-10T02:41:54.091Z,77.13
2019-05-10T02:44:25.984Z,77.74
2019-05-10T02:46:57.832Z,78.64
2019-05-10T02:49:29.811Z,78.72
2019-05-10T02:52:01.617Z,78.81
2019-05-10T02:54:33.496Z,78.87
2019-05-10T02:57:05.371Z,78.80
2019-05-10T02:59:37.238Z,79.05
2019-05-10T03:02:09.164Z,78.89
2019-05-10T03:04:41.042Z,79.19
2019-05-10T03:07:12.924Z,79.87
2019-05-10T03:09:47.513Z,79.46
2019-05-10T03:12:24.172Z,78.88
2019-05-10T03:14:57.492Z,79.19
2019-05-10T03:17:29.973Z,79.16
2019-05-10T03:20:01.965Z,78.81
2019-05-10T03:22:38.994Z,79.39
2019-05-10T03:25:10.969Z,79.55
2019-05-10T03:27:42.871Z,79.46
2019-05-10T03:30:15.784Z,79.18
2019-05-10T03:32:47.629Z,79.23
2019-05-10T03:35:19.770Z,79.32
2019-05-10T03:37:51.697Z,79.48
2019-05-10T03:40:23.560Z,79.35
2019-05-10T03:42:55.439Z,79.69
2019-05-10T03:45:27.229Z,79.60
2019-05-10T03:47:59.119Z,79.64
2019-05-10T03:50:31.010Z,79.48
2019-05-10T03:53:02.905Z,79.24
2019-05-10T03:55:34.814Z,79.35
2019-05-10T03:58:06.692Z,79.71
2019-05-10T04:00:38.506Z,79.72
2019-05-10T04:03:10.598Z,79.99
2019-05-10T04:05:42.619Z,80.21
2019-05-10T04:08:14.433Z,79.72
2019-05-10T04:10:46.287Z,79.95
2019-05-10T04:13:18.234Z,79.68
2019-05-10T04:15:50.238Z,79.48
2019-05-10T04:18:22.294Z,79.61
2019-05-10T04:20:55.171Z,80.09
2019-05-10T04:23:28.066Z,80.29
2019-05-10T04:25:59.930Z,80.41
2019-05-10T04:28:31.817Z,80.03
2019-05-10T04:31:03.766Z,80.07
2019-05-10T04:33:35.616Z,79.64
2019-05-10T04:36:12.010Z,80.18
2019-05-10T04:38:41.307Z,79.70
2019-05-10T04:41:13.629Z,79.57
2019-05-10T04:43:45.444Z,79.67
2019-05-10T04:46:17.326Z,79.56
2019-05-10T04:48:49.268Z,79.96
2019-05-10T04:51:21.116Z,79.40
2019-05-10T04:53:53.145Z,79.24
2019-05-10T04:56:25.151Z,79.13
2019-05-10T04:58:57.007Z,78.68
2019-05-10T05:01:28.813Z,79.23
2019-05-10T05:04:00.706Z,78.87
2019-05-10T05:06:32.900Z,79.50
2019-05-10T05:09:06.559Z,79.52
2019-05-10T05:11:38.499Z,79.51
2019-05-10T05:14:10.323Z,79.37
2019-05-10T05:16:42.120Z,79.55
2019-05-10T05:19:14.041Z,79.36
2019-05-10T05:21:45.910Z,79.27
2019-05-10T05:24:23.004Z,79.78
2019-05-10T05:26:51.397Z,79.34
2019-05-10T05:29:23.340Z,79.46
2019-05-10T05:32:01.442Z,78.80
2019-05-10T05:34:28.807Z,79.06
2019-05-10T05:37:02.057Z,79.23
2019-05-10T05:39:33.932Z,79.10
2019-05-10T05:42:05.739Z,79.44
2019-05-10T05:44:37.532Z,80.00
2019-05-10T05:47:09.411Z,79.41
2019-05-10T05:49:41.274Z,79.42
2019-05-10T05:52:13.061Z,79.86
2019-05-10T05:54:44.932Z,79.06
2019-05-10T05:57:16.726Z,78.78
2019-05-10T05:59:49.178Z,79.03
2019-05-10T06:02:21.157Z,78.66
2019-05-10T06:04:54.050Z,78.39
2019-05-10T06:07:31.245Z,78.81
2019-05-10T06:09:59.623Z,79.03
2019-05-10T06:12:31.462Z,78.80
2019-05-10T06:15:03.366Z,78.13
2019-05-10T06:17:35.330Z,78.76
2019-05-10T06:20:07.768Z,78.12
2019-05-10T06:22:45.619Z,77.89
2019-05-10T06:25:13.546Z,77.85
2019-05-10T06:27:45.441Z,78.12
2019-05-10T06:30:17.442Z,77.94
2019-05-10T06:32:53.370Z,78.44
2019-05-10T06:35:23.090Z,78.05
2019-05-10T06:37:54.955Z,78.13
2019-05-10T06:40:35.820Z,77.83
2019-05-10T06:43:00.327Z,77.36
2019-05-10T06:45:32.261Z,78.25
2019-05-10T06:48:04.130Z,78.02
2019-05-10T06:50:35.953Z,77.86
2019-05-10T06:53:10.810Z,77.00
2019-05-10T06:55:42.508Z,77.08
2019-05-10T06:58:14.404Z,76.49
2019-05-10T07:00:48.316Z,76.69
2019-05-10T07:03:20.776Z,76.52
2019-05-10T07:05:53.546Z,76.44
2019-05-10T07:08:25.423Z,76.52
2019-05-10T07:10:57.245Z,76.30
2019-05-10T07:13:29.124Z,76.02
2019-05-10T07:16:01.003Z,76.04
2019-05-10T07:18:32.879Z,75.62
2019-05-10T07:21:06.702Z,76.24
2019-05-10T07:23:39.149Z,75.53
2019-05-10T07:26:16.984Z,74.82
2019-05-10T07:28:45.387Z,75.36
2019-05-10T07:31:17.502Z,74.90
2019-05-10T07:33:49.309Z,74.53
2019-05-10T07:36:27.487Z,75.17
2019-05-10T07:38:56.918Z,75.17
2019-05-10T07:41:29.104Z,74.14
2019-05-10T07:44:08.035Z,74.99
2019-05-10T07:46:40.217Z,74.08
2019-05-10T07:49:08.498Z,74.08
2019-05-10T07:51:41.376Z,73.86
2019-05-10T07:54:13.235Z,73.71
2019-05-10T07:56:46.122Z,75.11
2019-05-10T07:59:22.005Z,73.65
2019-05-10T08:01:52.209Z,73.39
2019-05-10T08:04:28.984Z,74.00
2019-05-10T08:06:59.679Z,73.35
2019-05-10T08:09:31.774Z,72.52
2019-05-10T08:12:05.303Z,72.52
2019-05-10T08:14:39.386Z,72.97
2019-05-10T08:17:10.866Z,73.45
2019-05-10T08:19:43.716Z,72.83
2019-05-10T08:22:15.569Z,73.72
2019-05-10T08:24:52.702Z,74.13
2019-05-10T08:27:22.979Z,74.25
2019-05-10T08:30:17.967Z,72.25
2019-05-10T08:32:30.075Z,70.91
2019-05-10T08:35:05.094Z,71.62
2019-05-10T08:37:37.753Z,71.32
2019-05-10T08:40:09.376Z,71.58
2019-05-10T08:42:48.048Z,71.98
2019-05-10T08:45:14.998Z,69.76
2019-05-10T08:47:46.802Z,69.58
2019-05-10T08:50:34.474Z,69.72
2019-05-10T08:52:56.714Z,69.18
2019-05-10T08:55:25.849Z,68.82
2019-05-10T08:57:57.736Z,68.12
2019-05-10T09:00:48.932Z,69.10
2019-05-10T09:03:09.561Z,68.04
2019-05-10T09:05:39.793Z,69.86
2019-05-10T09:08:13.581Z,68.15
2019-05-10T09:10:43.874Z,66.53
2019-05-10T09:13:15.871Z,67.76
2019-05-10T09:15:51.916Z,64.48
2019-05-10T09:18:23.030Z,63.81
2019-05-10T09:21:02.623Z,63.59
2019-05-10T09:23:28.410Z,63.15
2019-05-10T09:26:03.629Z,64.76
2019-05-10T09:28:33.954Z,61.72
2019-05-10T09:31:17.048Z,62.13
2019-05-10T09:33:40.980Z,62.12
2019-05-10T09:36:12.895Z,61.80
2019-05-10T09:38:46.324Z,60.83
2019-05-10T09:41:19.346Z,58.37
2019-05-10T09:43:53.567Z,59.25
2019-05-10T09:46:24.819Z,58.47
2019-05-10T09:49:06.077Z,59.18
2019-05-10T09:51:30.944Z,60.63
2019-05-10T09:54:03.621Z,61.79
2019-05-10T09:56:39.486Z,63.78
2019-05-10T09:59:09.095Z,63.30
2019-05-10T10:01:40.967Z,61.64
2019-05-10T10:04:13.842Z,62.30
2019-05-10T10:06:48.343Z,64.12
2019-05-10T10:09:24.569Z,63.49
2019-05-10T10:12:00.808Z,63.08
2019-05-10T10:14:38.124Z,62.94
2019-05-10T10:17:04.035Z,60.56
2019-05-10T10:19:40.251Z,60.31
2019-05-10T10:22:11.074Z,59.14
2019-05-10T10:24:43.037Z,59.29
2019-05-10T10:27:17.065Z,58.61
2019-05-10T10:29:48.517Z,58.44
2019-05-10T10:32:24.608Z,61.11
2019-05-10T10:34:54.806Z,60.79
2019-05-10T10:37:29.102Z,61.35
2019-05-10T10:40:05.355Z,60.59
2019-05-10T10:42:38.043Z,61.31
2019-05-10T10:45:09.411Z,60.21
2019-05-10T10:47:42.622Z,60.18
2019-05-10T10:50:17.080Z,59.97
2019-05-10T10:52:48.404Z,58.01
2019-05-10T10:55:20.418Z,58.86
2019-05-10T10:57:53.481Z,58.11
2019-05-10T11:00:38.462Z,58.25
2019-05-10T11:03:09.078Z,58.83
2019-05-10T11:05:40.965Z,58.20
2019-05-10T11:08:12.813Z,59.25
2019-05-10T11:10:44.677Z,60.02
2019-05-10T11:13:23.779Z,60.28
2019-05-10T11:15:51.624Z,60.21
2019-05-10T11:18:23.946Z,60.56
2019-05-10T11:20:55.817Z,61.40
2019-05-10T11:23:34.066Z,61.34
2019-05-10T11:26:01.565Z,61.09
2019-05-10T11:28:38.541Z,61.63
2019-05-10T11:31:07.969Z,60.53
2019-05-10T11:33:41.554Z,60.63
2019-05-10T11:36:13.402Z,59.85
2019-05-10T11:38:47.070Z,59.48
2019-05-10T11:41:24.204Z,58.72
2019-05-10T11:43:57.938Z,57.35
2019-05-10T11:46:28.072Z,57.50
2019-05-10T11:49:01.787Z,58.02
2019-05-10T11:51:34.307Z,56.91
2019-05-10T11:54:06.746Z,56.17
2019-05-10T11:56:41.090Z,54.54
2019-05-10T11:59:16.502Z,54.11
2019-05-10T12:01:55.036Z,53.54
2019-05-10T12:04:35.659Z,53.83
2019-05-10T12:06:53.510Z,52.92
2019-05-10T12:09:25.626Z,53.58
2019-05-10T12:11:57.755Z,54.02
2019-05-10T12:14:29.728Z,52.86
2019-05-10T12:17:05.825Z,53.74
2019-05-10T12:19:44.516Z,54.87
2019-05-10T12:22:15.935Z,54.22
2019-05-10T12:25:00.510Z,51.87
2019-05-10T12:27:28.551Z,50.17
2019-05-10T12:29:59.531Z,51.04
2019-05-10T12:32:32.066Z,52.02
2019-05-10T12:35:01.493Z,50.52
2019-05-10T12:37:34.534Z,53.44
2019-05-10T12:40:11.978Z,50.00
2019-05-10T12:42:41.821Z,50.40
2019-05-10T12:45:13.726Z,50.97
2019-05-10T12:47:45.961Z,51.43
2019-05-10T12:50:18.541Z,51.86
2019-05-10T12:53:03.810Z,51.36
2019-05-10T12:55:24.333Z,50.80
2019-05-10T12:57:56.293Z,51.01
2019-05-10T13:00:28.165Z,51.03
2019-05-10T13:03:12.376Z,51.36
2019-05-10T13:05:34.320Z,52.04
2019-05-10T13:08:08.956Z,53.23
2019-05-10T13:10:43.288Z,53.60
2019-05-10T13:13:17.491Z,53.83
2019-05-10T13:15:48.651Z,54.08
2019-05-10T13:18:23.089Z,52.52
2019-05-10T13:20:54.342Z,51.98
2019-05-10T13:23:26.258Z,50.77
2019-05-10T13:25:58.206Z,51.73
2019-05-10T13:28:30.148Z,51.99
2019-05-10T13:31:05.534Z,52.91
2019-05-10T13:33:41.797Z,53.55
2019-05-10T13:36:09.318Z,53.98
2019-05-10T13:38:43.848Z,54.41
2019-05-10T13:41:18.052Z,53.61
2019-05-10T13:43:49.409Z,54.96
2019-05-10T13:46:21.692Z,52.12
2019-05-10T13:48:53.584Z,52.17
2019-05-10T13:51:26.464Z,47.95
2019-05-10T13:53:58.999Z,48.06
2019-05-10T13:56:31.876Z,48.54
2019-05-10T13:59:15.756Z,49.03
2019-05-10T14:01:37.289Z,48.83
2019-05-10T14:04:09.159Z,49.48
2019-05-10T14:06:41.038Z,49.29
2019-05-10T14:09:12.850Z,49.33
2019-05-10T14:11:47.002Z,50.20
2019-05-10T14:14:20.374Z,50.81
2019-05-10T14:16:51.818Z,50.77
2019-05-10T14:19:25.607Z,50.71
2019-05-10T14:21:58.833Z,50.62
2019-05-10T14:24:30.978Z,50.59
2019-05-10T14:27:02.839Z,51.41
2019-05-10T14:29:36.911Z,50.88
2019-05-10T14:32:09.775Z,51.16
2019-05-10T14:34:44.503Z,51.92
2019-05-10T14:37:19.977Z,52.43
2019-05-10T14:39:53.393Z,52.83
2019-05-10T14:42:30.919Z,52.76
2019-05-10T14:44:58.876Z,52.50
2019-05-10T14:47:30.743Z,52.17
2019-05-10T14:50:02.539Z,51.79
2019-05-10T14:52:34.392Z,51.07
2019-05-10T14:55:07.000Z,50.36
2019-05-10T14:57:38.883Z,50.57
2019-05-10T15:00:10.816Z,49.61
2019-05-10T15:02:43.674Z,49.53
2019-05-10T15:05:18.002Z,46.35
2019-05-10T15:07:51.212Z,43.78
2019-05-10T15:10:22.739Z,43.16
2019-05-10T15:12:54.614Z,45.25
2019-05-10T15:15:31.251Z,45.62
2019-05-10T15:18:01.911Z,46.91
2019-05-10T15:20:35.802Z,47.70
2019-05-10T15:23:07.167Z,48.98
2019-05-10T15:25:55.432Z,51.26
2019-05-10T15:28:12.557Z,54.72
2019-05-10T15:30:45.812Z,55.80
2019-05-10T15:33:18.037Z,56.78
2019-05-10T15:35:51.724Z,56.65
2019-05-10T15:38:23.514Z,56.11
2019-05-10T15:40:55.390Z,53.11
2019-05-10T15:43:27.261Z,48.32
2019-05-10T15:45:59.228Z,48.86
2019-05-10T15:48:31.022Z,48.99
2019-05-10T15:51:02.835Z,49.61
2019-05-10T15:53:34.699Z,50.15
2019-05-10T15:56:06.526Z,49.42
2019-05-10T15:58:42.064Z,50.33
2019-05-10T16:01:14.407Z,51.64
2019-05-10T16:03:45.579Z,52.38
2019-05-10T16:06:17.423Z,53.88
2019-05-10T16:08:49.316Z,55.09
2019-05-10T16:11:21.198Z,53.99
2019-05-10T16:13:54.870Z,55.35
2019-05-10T16:16:36.984Z,55.34
2019-05-10T16:19:12.906Z,55.90
2019-05-10T16:21:46.758Z,56.59
2019-05-10T16:24:24.930Z,57.25
2019-05-10T16:26:54.654Z,57.58
2019-05-10T16:29:24.141Z,58.39
2019-05-10T16:31:56.456Z,57.58
2019-05-10T16:34:32.238Z,59.03
2019-05-10T16:37:02.056Z,58.58
2019-05-10T16:39:34.220Z,59.19
2019-05-10T16:42:06.416Z,59.75
2019-05-10T16:44:38.468Z,60.78
2019-05-10T16:47:10.453Z,60.38
2019-05-10T16:49:47.612Z,61.73
2019-05-10T16:52:26.012Z,63.09
2019-05-10T16:54:57.747Z,64.12
2019-05-10T16:57:31.903Z,64.29
2019-05-10T17:00:08.242Z,64.87
2019-05-10T17:02:41.861Z,64.85
2019-05-10T17:05:15.076Z,65.03
2019-05-10T17:07:43.927Z,65.64
2019-05-10T17:10:15.716Z,65.26
2019-05-10T17:12:47.921Z,65.66
2019-05-10T17:15:19.864Z,65.79
2019-05-10T17:17:51.816Z,65.71
2019-05-10T17:20:23.765Z,65.88
2019-05-10T17:23:08.173Z,66.11
2019-05-10T17:25:29.306Z,66.38
2019-05-10T17:28:02.124Z,66.10
2019-05-10T17:30:36.588Z,65.76
2019-05-10T17:33:10.899Z,66.02
2019-05-10T17:35:44.699Z,65.76
2019-05-10T17:38:19.681Z,65.93
2019-05-10T17:40:53.674Z,66.32
2019-05-10T17:43:26.037Z,66.72
2019-05-10T17:45:58.138Z,67.02
2019-05-10T17:48:30.058Z,66.27
2019-05-10T17:51:02.101Z,66.77
2019-05-10T17:53:34.109Z,66.65
2019-05-10T17:56:05.976Z,66.03
2019-05-10T17:58:38.827Z,66.64
2019-05-10T18:01:12.202Z,67.01
2019-05-10T18:03:44.548Z,67.34
2019-05-10T18:06:24.049Z,67.64
2019-05-10T18:08:49.923Z,68.00
2019-05-10T18:11:22.078Z,68.26
2019-05-10T18:13:54.029Z,68.54
2019-05-10T18:16:25.837Z,68.63
2019-05-10T18:18:57.799Z,68.36
2019-05-10T18:21:29.669Z,68.31
2019-05-10T18:24:01.668Z,68.43
2019-05-10T18:26:34.208Z,68.31
2019-05-10T18:29:07.072Z,68.70
2019-05-10T18:31:40.618Z,68.36
2019-05-10T18:34:14.404Z,68.27
2019-05-10T18:36:51.597Z,68.35
2019-05-10T18:39:19.878Z,68.67
2019-05-10T18:41:51.779Z,68.25
2019-05-10T18:44:23.674Z,68.24
2019-05-10T18:46:55.700Z,68.16
2019-05-10T18:49:27.588Z,67.86
2019-05-10T18:52:06.335Z,67.99
2019-05-10T18:54:32.978Z,68.65
2019-05-10T18:57:11.574Z,68.83
2019-05-10T18:59:45.339Z,68.71
2019-05-10T19:02:17.779Z,67.89
2019-05-10T19:04:52.207Z,68.50
2019-05-10T19:07:22.470Z,69.05
2019-05-10T19:09:54.395Z,68.43
2019-05-10T19:12:26.486Z,67.46
2019-05-10T19:15:02.369Z,66.27
2019-05-10T19:17:32.318Z,66.40
2019-05-10T19:20:09.344Z,66.19
2019-05-10T19:22:41.364Z,65.23
2019-05-10T19:25:14.054Z,65.44
2019-05-10T19:27:50.535Z,65.58
2019-05-10T19:30:20.618Z,65.71
2019-05-10T19:32:56.474Z,65.93
2019-05-10T19:35:34.869Z,65.94
2019-05-10T19:38:05.567Z,66.31
2019-05-10T19:40:38.705Z,66.52
2019-05-10T19:43:15.143Z,66.57
2019-05-10T19:45:44.644Z,66.81
2019-05-10T19:48:16.550Z,66.60
2019-05-10T19:50:48.449Z,67.39
2019-05-10T19:53:20.342Z,67.14
2019-05-10T19:55:57.302Z,67.12
2019-05-10T19:58:26.461Z,67.14
2019-05-10T20:00:59.485Z,67.11
2019-05-10T20:03:31.438Z,67.02
2019-05-10T20:06:03.435Z,67.39
2019-05-10T20:08:35.593Z,67.55
2019-05-10T20:11:07.482Z,67.95
2019-05-10T20:13:39.407Z,67.70
2019-05-10T20:16:11.286Z,67.94
2019-05-10T20:18:43.090Z,68.08
2019-05-10T20:21:15.014Z,68.16
2019-05-10T20:23:46.922Z,68.16
2019-05-10T20:26:20.384Z,68.37
2019-05-10T20:28:52.931Z,68.24
2019-05-10T20:31:24.954Z,68.28
2019-05-10T20:33:56.922Z,68.60
2019-05-10T20:36:28.811Z,69.05
2019-05-10T20:39:01.067Z,68.97
2019-05-10T20:41:34.681Z,69.09
2019-05-10T20:44:08.204Z,69.50
2019-05-10T20:46:40.873Z,69.38
2019-05-10T20:49:13.658Z,69.28
2019-05-10T20:51:45.570Z,68.92
2019-05-10T20:54:17.449Z,68.97
2019-05-10T20:56:49.354Z,69.20
2019-05-10T20:59:21.720Z,69.29
2019-05-10T21:01:54.017Z,69.39
2019-05-10T21:04:25.968Z,69.28
2019-05-10T21:06:59.084Z,69.35
2019-05-10T21:09:30.980Z,69.13
2019-05-10T21:12:02.884Z,69.32
2019-05-10T21:14:34.765Z,69.14
2019-05-10T21:17:08.632Z,68.75
2019-05-10T21:19:42.374Z,68.50
2019-05-10T21:22:15.864Z,68.95
2019-05-10T21:24:47.806Z,69.06
2019-05-10T21:27:20.723Z,68.72
2019-05-10T21:29:54.540Z,68.99
2019-05-10T21:32:26.417Z,69.27
2019-05-10T21:34:58.298Z,69.56
2019-05-10T21:37:30.187Z,69.55
2019-05-10T21:40:02.056Z,69.86
2019-05-10T21:42:33.929Z,70.64
2019-05-10T21:45:05.835Z,70.71
2019-05-10T21:47:50.572Z,71.01
2019-05-10T21:50:11.298Z,70.93
2019-05-10T21:52:43.274Z,71.12
2019-05-10T21:55:15.148Z,71.35
2019-05-10T21:57:47.046Z,71.46
2019-05-10T22:00:20.780Z,71.94
2019-05-10T22:02:54.468Z,71.76
2019-05-10T22:05:26.400Z,72.11
2019-05-10T22:07:58.427Z,72.09
2019-05-10T22:10:30.301Z,72.29
2019-05-10T22:13:02.185Z,72.52
2019-05-10T22:15:34.073Z,72.77
2019-05-10T22:18:05.983Z,72.98
2019-05-10T22:20:37.838Z,73.19
2019-05-10T22:23:09.958Z,73.49
2019-05-10T22:25:41.767Z,73.64
2019-05-10T22:28:13.671Z,73.41
2019-05-10T22:30:45.656Z,73.61
2019-05-10T22:33:17.471Z,73.77
2019-05-10T22:35:49.345Z,73.65
2019-05-10T22:38:21.248Z,73.56
2019-05-10T22:40:53.369Z,73.60
2019-05-10T22:43:25.405Z,73.52
2019-05-10T22:45:57.288Z,73.57
2019-05-10T22:48:29.176Z,73.82
2019-05-10T22:51:01.054Z,73.86
2019-05-10T22:53:32.936Z,73.80
2019-05-10T22:56:04.753Z,74.00
2019-05-10T22:58:36.640Z,73.58
2019-05-10T23:01:08.652Z,73.70
2019-05-10T23:03:40.943Z,73.44
2019-05-10T23:06:13.016Z,73.56
2019-05-10T23:08:44.918Z,73.64
2019-05-10T23:11:16.888Z,73.61
2019-05-10T23:13:48.882Z,73.83
2019-05-10T23:16:20.878Z,73.79
2019-05-10T23:18:52.786Z,73.80
2019-05-10T23:21:24.754Z,74.04
2019-05-10T23:23:56.640Z,74.12
2019-05-10T23:26:28.526Z,74.37
2019-05-10T23:29:00.423Z,74.55
2019-05-10T23:31:35.466Z,74.67
2019-05-10T23:34:05.964Z,74.65
2019-05-10T23:36:37.952Z,74.76
2019-05-10T23:39:09.833Z,75.04
2019-05-10T23:41:41.730Z,75.09
2019-05-10T23:44:13.589Z,75.59
2019-05-10T23:46:45.467Z,75.89
2019-05-10T23:49:17.369Z,75.79
2019-05-10T23:51:49.257Z,75.97
2019-05-10T23:54:21.162Z,76.26
2019-05-10T23:56:53.379Z,76.22
2019-05-10T23:59:25.391Z,76.36
